sensor_id;sensor_type;location;lat;lon;timestamp;temperature;humidity
16301;DHT22;8258;51.020;4.248;2022-10-31T00:01:47;13.30;99.90
16301;DHT22;8258;51.020;4.248;2022-10-31T00:04:14;13.30;99.90
16301;DHT22;8258;51.020;4.248;2022-10-31T00:06:41;13.40;99.90
16301;DHT22;8258;51.020;4.248;2022-10-31T00:09:09;13.30;99.90
16301;DHT22;8258;51.020;4.248;2022-10-31T00:11:37;13.30;99.90
16301;DHT22;8258;51.020;4.248;2022-10-31T00:14:05;13.30;99.90
16301;DHT22;8258;51.020;4.248;2022-10-31T00:16:32;13.20;99.90
16301;DHT22;8258;51.020;4.248;2022-10-31T00:19:01;13.20;99.90
16301;DHT22;8258;51.020;4.248;2022-10-31T00:21:29;13.10;99.90
16301;DHT22;8258;51.020;4.248;2022-10-31T00:23:56;13.00;99.90
16301;DHT22;8258;51.020;4.248;2022-10-31T00:26:23;13.00;99.90
16301;DHT22;8258;51.020;4.248;2022-10-31T00:28:50;13.00;99.90
16301;DHT22;8258;51.020;4.248;2022-10-31T00:31:18;12.90;99.90
16301;DHT22;8258;51.020;4.248;2022-10-31T00:33:45;12.80;99.90
16301;DHT22;8258;51.020;4.248;2022-10-31T00:36:14;12.70;99.90
16301;DHT22;8258;51.020;4.248;2022-10-31T00:38:41;12.80;99.90
16301;DHT22;8258;51.020;4.248;2022-10-31T00:41:08;12.60;99.90
16301;DHT22;8258;51.020;4.248;2022-10-31T00:43:35;12.50;99.90
16301;DHT22;8258;51.020;4.248;2022-10-31T00:46:02;12.40;99.90
16301;DHT22;8258;51.020;4.248;2022-10-31T00:48:30;12.40;99.90
16301;DHT22;8258;51.020;4.248;2022-10-31T00:50:57;12.40;99.90
16301;DHT22;8258;51.020;4.248;2022-10-31T00:53:24;12.50;99.90
16301;DHT22;8258;51.020;4.248;2022-10-31T00:55:51;12.40;99.90
16301;DHT22;8258;51.020;4.248;2022-10-31T00:58:18;12.40;99.90
16301;DHT22;8258;51.020;4.248;2022-10-31T01:00:47;12.30;99.90
16301;DHT22;8258;51.020;4.248;2022-10-31T01:03:20;12.30;99.90
16301;DHT22;8258;51.020;4.248;2022-10-31T01:05:57;12.30;99.90
16301;DHT22;8258;51.020;4.248;2022-10-31T01:08:24;12.30;99.90
16301;DHT22;8258;51.020;4.248;2022-10-31T01:11:01;12.20;99.90
16301;DHT22;8258;51.020;4.248;2022-10-31T01:13:29;12.20;99.90
16301;DHT22;8258;51.020;4.248;2022-10-31T01:15:57;12.10;99.90
16301;DHT22;8258;51.020;4.248;2022-10-31T01:18:24;12.00;99.90
16301;DHT22;8258;51.020;4.248;2022-10-31T01:21:00;11.80;99.90
16301;DHT22;8258;51.020;4.248;2022-10-31T01:23:28;11.80;99.90
16301;DHT22;8258;51.020;4.248;2022-10-31T01:26:04;11.90;99.90
16301;DHT22;8258;51.020;4.248;2022-10-31T01:28:32;11.80;99.90
16301;DHT22;8258;51.020;4.248;2022-10-31T01:31:04;11.70;99.90
16301;DHT22;8258;51.020;4.248;2022-10-31T01:33:31;11.70;99.90
16301;DHT22;8258;51.020;4.248;2022-10-31T01:36:00;11.70;99.90
16301;DHT22;8258;51.020;4.248;2022-10-31T01:38:27;11.70;99.90
16301;DHT22;8258;51.020;4.248;2022-10-31T01:40:54;11.70;99.90
16301;DHT22;8258;51.020;4.248;2022-10-31T01:43:21;11.70;99.90
16301;DHT22;8258;51.020;4.248;2022-10-31T01:45:51;11.80;99.90
16301;DHT22;8258;51.020;4.248;2022-10-31T01:48:21;11.60;99.90
16301;DHT22;8258;51.020;4.248;2022-10-31T01:50:52;11.60;99.90
16301;DHT22;8258;51.020;4.248;2022-10-31T01:53:21;11.60;99.90
16301;DHT22;8258;51.020;4.248;2022-10-31T01:55:49;11.50;99.90
16301;DHT22;8258;51.020;4.248;2022-10-31T01:58:19;11.60;99.90
16301;DHT22;8258;51.020;4.248;2022-10-31T02:00:48;11.70;99.90
16301;DHT22;8258;51.020;4.248;2022-10-31T02:03:17;11.60;99.90
16301;DHT22;8258;51.020;4.248;2022-10-31T02:05:44;11.60;99.90
16301;DHT22;8258;51.020;4.248;2022-10-31T02:08:15;11.60;99.90
16301;DHT22;8258;51.020;4.248;2022-10-31T02:10:45;11.70;99.90
16301;DHT22;8258;51.020;4.248;2022-10-31T02:13:12;11.60;99.90
16301;DHT22;8258;51.020;4.248;2022-10-31T02:15:40;11.60;99.90
16301;DHT22;8258;51.020;4.248;2022-10-31T02:18:09;11.50;99.90
16301;DHT22;8258;51.020;4.248;2022-10-31T02:20:42;11.50;99.90
16301;DHT22;8258;51.020;4.248;2022-10-31T02:26:35;11.40;99.90
16301;DHT22;8258;51.020;4.248;2022-10-31T02:32:06;11.40;99.90
16301;DHT22;8258;51.020;4.248;2022-10-31T02:34:39;11.40;99.90
16301;DHT22;8258;51.020;4.248;2022-10-31T02:37:12;11.40;99.90
16301;DHT22;8258;51.020;4.248;2022-10-31T02:39:47;11.30;99.90
16301;DHT22;8258;51.020;4.248;2022-10-31T02:42:20;11.20;99.90
16301;DHT22;8258;51.020;4.248;2022-10-31T02:44:53;11.20;99.90
16301;DHT22;8258;51.020;4.248;2022-10-31T02:47:27;11.10;99.90
16301;DHT22;8258;51.020;4.248;2022-10-31T02:49:59;11.10;99.90
16301;DHT22;8258;51.020;4.248;2022-10-31T02:52:28;11.10;99.90
16301;DHT22;8258;51.020;4.248;2022-10-31T02:54:55;11.00;99.90
16301;DHT22;8258;51.020;4.248;2022-10-31T02:57:25;10.90;99.90
16301;DHT22;8258;51.020;4.248;2022-10-31T02:59:56;10.90;99.90
16301;DHT22;8258;51.020;4.248;2022-10-31T03:02:49;10.90;99.90
16301;DHT22;8258;51.020;4.248;2022-10-31T03:05:28;10.80;99.90
16301;DHT22;8258;51.020;4.248;2022-10-31T03:08:03;10.80;99.90
16301;DHT22;8258;51.020;4.248;2022-10-31T03:10:39;10.70;99.90
16301;DHT22;8258;51.020;4.248;2022-10-31T03:13:12;10.80;99.90
16301;DHT22;8258;51.020;4.248;2022-10-31T03:15:44;10.80;99.90
16301;DHT22;8258;51.020;4.248;2022-10-31T03:18:16;10.80;99.90
16301;DHT22;8258;51.020;4.248;2022-10-31T03:20:47;10.80;99.90
16301;DHT22;8258;51.020;4.248;2022-10-31T03:23:19;10.70;99.90
16301;DHT22;8258;51.020;4.248;2022-10-31T03:25:47;10.70;99.90
16301;DHT22;8258;51.020;4.248;2022-10-31T03:28:17;10.50;99.90
16301;DHT22;8258;51.020;4.248;2022-10-31T03:30:45;10.40;99.90
16301;DHT22;8258;51.020;4.248;2022-10-31T03:33:17;10.30;99.90
16301;DHT22;8258;51.020;4.248;2022-10-31T03:35:47;10.30;99.90
16301;DHT22;8258;51.020;4.248;2022-10-31T03:38:15;10.20;99.90
16301;DHT22;8258;51.020;4.248;2022-10-31T03:40:44;10.20;99.90
16301;DHT22;8258;51.020;4.248;2022-10-31T03:43:16;10.20;99.90
16301;DHT22;8258;51.020;4.248;2022-10-31T03:45:45;10.20;99.90
16301;DHT22;8258;51.020;4.248;2022-10-31T03:48:16;10.10;99.90
16301;DHT22;8258;51.020;4.248;2022-10-31T03:50:50;10.10;99.90
16301;DHT22;8258;51.020;4.248;2022-10-31T03:53:22;10.00;99.90
16301;DHT22;8258;51.020;4.248;2022-10-31T03:55:54;9.90;99.90
16301;DHT22;8258;51.020;4.248;2022-10-31T03:58:27;10.00;99.90
16301;DHT22;8258;51.020;4.248;2022-10-31T04:00:56;10.10;99.90
16301;DHT22;8258;51.020;4.248;2022-10-31T04:03:26;10.10;99.90
16301;DHT22;8258;51.020;4.248;2022-10-31T04:05:56;10.20;99.90
16301;DHT22;8258;51.020;4.248;2022-10-31T04:08:27;10.20;99.90
16301;DHT22;8258;51.020;4.248;2022-10-31T04:10:56;10.20;99.90
16301;DHT22;8258;51.020;4.248;2022-10-31T04:13:26;10.20;99.90
16301;DHT22;8258;51.020;4.248;2022-10-31T04:15:55;10.20;99.90
16301;DHT22;8258;51.020;4.248;2022-10-31T04:18:22;10.20;99.90
16301;DHT22;8258;51.020;4.248;2022-10-31T04:21:00;10.20;99.90
16301;DHT22;8258;51.020;4.248;2022-10-31T04:23:27;10.20;99.90
16301;DHT22;8258;51.020;4.248;2022-10-31T04:25:54;10.20;99.90
16301;DHT22;8258;51.020;4.248;2022-10-31T04:28:21;10.20;99.90
16301;DHT22;8258;51.020;4.248;2022-10-31T04:30:48;10.20;99.90
16301;DHT22;8258;51.020;4.248;2022-10-31T04:33:15;10.10;99.90
16301;DHT22;8258;51.020;4.248;2022-10-31T04:35:43;10.00;99.90
16301;DHT22;8258;51.020;4.248;2022-10-31T04:38:11;9.90;99.90
16301;DHT22;8258;51.020;4.248;2022-10-31T04:40:38;10.00;99.90
16301;DHT22;8258;51.020;4.248;2022-10-31T04:43:05;9.90;99.90
16301;DHT22;8258;51.020;4.248;2022-10-31T04:45:32;9.90;99.90
16301;DHT22;8258;51.020;4.248;2022-10-31T04:47:58;9.90;99.90
16301;DHT22;8258;51.020;4.248;2022-10-31T04:50:25;9.90;99.90
16301;DHT22;8258;51.020;4.248;2022-10-31T04:52:52;9.80;99.90
16301;DHT22;8258;51.020;4.248;2022-10-31T04:55:21;9.90;99.90
16301;DHT22;8258;51.020;4.248;2022-10-31T04:57:48;9.90;99.90
16301;DHT22;8258;51.020;4.248;2022-10-31T05:00:18;9.90;99.90
16301;DHT22;8258;51.020;4.248;2022-10-31T05:02:45;9.90;99.90
16301;DHT22;8258;51.020;4.248;2022-10-31T05:05:13;9.90;99.90
16301;DHT22;8258;51.020;4.248;2022-10-31T05:07:41;10.00;99.90
16301;DHT22;8258;51.020;4.248;2022-10-31T05:10:08;10.00;99.90
16301;DHT22;8258;51.020;4.248;2022-10-31T05:12:37;10.00;99.90
16301;DHT22;8258;51.020;4.248;2022-10-31T05:15:05;9.90;99.90
16301;DHT22;8258;51.020;4.248;2022-10-31T05:17:32;9.80;99.90
16301;DHT22;8258;51.020;4.248;2022-10-31T05:19:59;9.80;99.90
16301;DHT22;8258;51.020;4.248;2022-10-31T05:22:26;9.70;99.90
16301;DHT22;8258;51.020;4.248;2022-10-31T05:24:53;9.70;99.90
16301;DHT22;8258;51.020;4.248;2022-10-31T05:27:20;9.70;99.90
16301;DHT22;8258;51.020;4.248;2022-10-31T05:29:48;9.70;99.90
16301;DHT22;8258;51.020;4.248;2022-10-31T05:32:15;9.80;99.90
16301;DHT22;8258;51.020;4.248;2022-10-31T05:34:43;9.80;99.90
16301;DHT22;8258;51.020;4.248;2022-10-31T05:37:10;9.90;99.90
16301;DHT22;8258;51.020;4.248;2022-10-31T05:39:37;9.80;99.90
16301;DHT22;8258;51.020;4.248;2022-10-31T05:42:04;9.80;99.90
16301;DHT22;8258;51.020;4.248;2022-10-31T05:44:30;10.00;99.90
16301;DHT22;8258;51.020;4.248;2022-10-31T05:46:59;10.10;99.90
16301;DHT22;8258;51.020;4.248;2022-10-31T05:49:26;10.10;99.90
16301;DHT22;8258;51.020;4.248;2022-10-31T05:51:52;10.20;99.90
16301;DHT22;8258;51.020;4.248;2022-10-31T05:54:19;10.20;99.90
16301;DHT22;8258;51.020;4.248;2022-10-31T05:56:46;10.10;99.90
16301;DHT22;8258;51.020;4.248;2022-10-31T05:59:13;10.10;99.90
16301;DHT22;8258;51.020;4.248;2022-10-31T06:01:40;10.20;99.90
16301;DHT22;8258;51.020;4.248;2022-10-31T06:04:08;10.30;99.90
16301;DHT22;8258;51.020;4.248;2022-10-31T06:09:11;10.30;99.90
16301;DHT22;8258;51.020;4.248;2022-10-31T06:11:38;10.30;99.90
16301;DHT22;8258;51.020;4.248;2022-10-31T06:14:05;10.40;99.90
16301;DHT22;8258;51.020;4.248;2022-10-31T06:16:33;10.50;99.90
16301;DHT22;8258;51.020;4.248;2022-10-31T06:19:00;10.60;99.90
16301;DHT22;8258;51.020;4.248;2022-10-31T06:21:28;10.60;99.90
16301;DHT22;8258;51.020;4.248;2022-10-31T06:23:55;10.70;99.90
16301;DHT22;8258;51.020;4.248;2022-10-31T06:26:22;10.70;99.90
16301;DHT22;8258;51.020;4.248;2022-10-31T06:28:48;10.70;99.90
16301;DHT22;8258;51.020;4.248;2022-10-31T06:31:15;10.80;99.90
16301;DHT22;8258;51.020;4.248;2022-10-31T06:33:42;10.80;99.90
16301;DHT22;8258;51.020;4.248;2022-10-31T06:36:09;10.80;99.90
16301;DHT22;8258;51.020;4.248;2022-10-31T06:38:37;10.80;99.90
16301;DHT22;8258;51.020;4.248;2022-10-31T06:41:05;10.80;99.90
16301;DHT22;8258;51.020;4.248;2022-10-31T06:43:32;10.80;99.90
16301;DHT22;8258;51.020;4.248;2022-10-31T06:46:02;10.80;99.90
16301;DHT22;8258;51.020;4.248;2022-10-31T06:48:29;10.80;99.90
16301;DHT22;8258;51.020;4.248;2022-10-31T06:50:57;10.90;99.90
16301;DHT22;8258;51.020;4.248;2022-10-31T06:53:25;10.90;99.90
16301;DHT22;8258;51.020;4.248;2022-10-31T06:55:53;10.80;99.90
16301;DHT22;8258;51.020;4.248;2022-10-31T07:00:59;10.90;99.90
16301;DHT22;8258;51.020;4.248;2022-10-31T07:03:26;11.00;99.90
16301;DHT22;8258;51.020;4.248;2022-10-31T07:05:55;11.10;99.90
16301;DHT22;8258;51.020;4.248;2022-10-31T07:08:22;11.20;99.90
16301;DHT22;8258;51.020;4.248;2022-10-31T07:10:53;11.20;99.90
16301;DHT22;8258;51.020;4.248;2022-10-31T07:13:21;11.20;99.90
16301;DHT22;8258;51.020;4.248;2022-10-31T07:15:51;11.30;99.90
16301;DHT22;8258;51.020;4.248;2022-10-31T07:18:18;11.40;99.90
16301;DHT22;8258;51.020;4.248;2022-10-31T07:20:45;11.50;99.90
16301;DHT22;8258;51.020;4.248;2022-10-31T07:23:13;11.60;99.90
16301;DHT22;8258;51.020;4.248;2022-10-31T07:25:40;11.50;99.90
16301;DHT22;8258;51.020;4.248;2022-10-31T07:28:09;11.60;99.90
16301;DHT22;8258;51.020;4.248;2022-10-31T07:30:36;11.60;99.90
16301;DHT22;8258;51.020;4.248;2022-10-31T07:33:03;11.70;99.90
16301;DHT22;8258;51.020;4.248;2022-10-31T07:35:31;11.80;99.90
16301;DHT22;8258;51.020;4.248;2022-10-31T07:38:06;11.80;99.90
16301;DHT22;8258;51.020;4.248;2022-10-31T07:40:33;11.90;99.90
16301;DHT22;8258;51.020;4.248;2022-10-31T07:43:00;11.90;99.90
16301;DHT22;8258;51.020;4.248;2022-10-31T07:45:28;11.90;99.90
16301;DHT22;8258;51.020;4.248;2022-10-31T07:47:55;12.00;99.90
16301;DHT22;8258;51.020;4.248;2022-10-31T07:50:24;12.00;99.90
16301;DHT22;8258;51.020;4.248;2022-10-31T07:52:58;12.10;99.90
16301;DHT22;8258;51.020;4.248;2022-10-31T07:55:26;12.20;99.90
16301;DHT22;8258;51.020;4.248;2022-10-31T07:57:57;12.20;99.90
16301;DHT22;8258;51.020;4.248;2022-10-31T08:00:24;12.30;99.90
16301;DHT22;8258;51.020;4.248;2022-10-31T08:02:58;12.30;99.90
16301;DHT22;8258;51.020;4.248;2022-10-31T08:05:25;12.30;99.90
16301;DHT22;8258;51.020;4.248;2022-10-31T08:07:52;12.40;99.90
16301;DHT22;8258;51.020;4.248;2022-10-31T08:10:19;12.50;99.90
16301;DHT22;8258;51.020;4.248;2022-10-31T08:12:47;12.50;99.90
16301;DHT22;8258;51.020;4.248;2022-10-31T08:15:14;12.50;99.90
16301;DHT22;8258;51.020;4.248;2022-10-31T08:17:41;12.60;99.90
16301;DHT22;8258;51.020;4.248;2022-10-31T08:20:10;12.70;99.90
16301;DHT22;8258;51.020;4.248;2022-10-31T08:22:37;12.80;99.90
16301;DHT22;8258;51.020;4.248;2022-10-31T08:25:04;13.00;99.90
16301;DHT22;8258;51.020;4.248;2022-10-31T08:27:31;13.20;99.90
16301;DHT22;8258;51.020;4.248;2022-10-31T08:29:58;13.30;99.90
16301;DHT22;8258;51.020;4.248;2022-10-31T08:32:25;13.40;99.90
16301;DHT22;8258;51.020;4.248;2022-10-31T08:34:52;13.40;99.90
16301;DHT22;8258;51.020;4.248;2022-10-31T08:37:20;13.60;99.90
16301;DHT22;8258;51.020;4.248;2022-10-31T08:39:47;13.60;99.90
16301;DHT22;8258;51.020;4.248;2022-10-31T08:42:14;13.70;99.90
16301;DHT22;8258;51.020;4.248;2022-10-31T08:44:40;13.80;99.90
16301;DHT22;8258;51.020;4.248;2022-10-31T08:47:07;13.80;99.90
16301;DHT22;8258;51.020;4.248;2022-10-31T08:49:34;13.90;99.90
16301;DHT22;8258;51.020;4.248;2022-10-31T08:52:01;13.80;99.90
16301;DHT22;8258;51.020;4.248;2022-10-31T08:54:29;14.00;99.90
16301;DHT22;8258;51.020;4.248;2022-10-31T08:56:56;13.90;99.90
16301;DHT22;8258;51.020;4.248;2022-10-31T08:59:23;14.00;99.90
16301;DHT22;8258;51.020;4.248;2022-10-31T09:01:50;14.00;99.90
16301;DHT22;8258;51.020;4.248;2022-10-31T09:04:17;14.00;99.90
16301;DHT22;8258;51.020;4.248;2022-10-31T09:06:44;13.90;99.90
16301;DHT22;8258;51.020;4.248;2022-10-31T09:09:10;14.00;99.90
16301;DHT22;8258;51.020;4.248;2022-10-31T09:11:39;14.10;99.90
16301;DHT22;8258;51.020;4.248;2022-10-31T09:14:06;14.20;99.90
16301;DHT22;8258;51.020;4.248;2022-10-31T09:16:33;14.10;99.90
16301;DHT22;8258;51.020;4.248;2022-10-31T09:18:59;14.00;99.90
16301;DHT22;8258;51.020;4.248;2022-10-31T09:21:26;13.90;99.90
16301;DHT22;8258;51.020;4.248;2022-10-31T09:23:53;13.80;99.90
16301;DHT22;8258;51.020;4.248;2022-10-31T09:26:20;13.70;99.90
16301;DHT22;8258;51.020;4.248;2022-10-31T09:28:48;13.70;99.90
16301;DHT22;8258;51.020;4.248;2022-10-31T09:31:15;13.70;99.90
16301;DHT22;8258;51.020;4.248;2022-10-31T09:33:42;13.70;99.90
16301;DHT22;8258;51.020;4.248;2022-10-31T09:36:09;13.70;99.90
16301;DHT22;8258;51.020;4.248;2022-10-31T09:38:36;13.80;99.90
16301;DHT22;8258;51.020;4.248;2022-10-31T09:41:12;13.80;99.90
16301;DHT22;8258;51.020;4.248;2022-10-31T09:43:49;13.80;99.90
16301;DHT22;8258;51.020;4.248;2022-10-31T09:46:23;13.80;99.90
16301;DHT22;8258;51.020;4.248;2022-10-31T09:49:10;13.80;99.90
16301;DHT22;8258;51.020;4.248;2022-10-31T09:51:41;13.90;99.90
16301;DHT22;8258;51.020;4.248;2022-10-31T09:54:14;13.90;99.90
16301;DHT22;8258;51.020;4.248;2022-10-31T09:56:43;14.00;99.90
16301;DHT22;8258;51.020;4.248;2022-10-31T09:59:19;14.10;99.90
16301;DHT22;8258;51.020;4.248;2022-10-31T10:01:49;14.20;99.90
16301;DHT22;8258;51.020;4.248;2022-10-31T10:04:31;14.40;99.90
16301;DHT22;8258;51.020;4.248;2022-10-31T10:07:01;14.60;99.90
16301;DHT22;8258;51.020;4.248;2022-10-31T10:09:29;14.60;99.90
16301;DHT22;8258;51.020;4.248;2022-10-31T10:12:06;14.70;99.90
16301;DHT22;8258;51.020;4.248;2022-10-31T10:14:55;14.70;99.90
16301;DHT22;8258;51.020;4.248;2022-10-31T10:17:34;14.70;99.90
16301;DHT22;8258;51.020;4.248;2022-10-31T10:20:18;14.70;99.90
16301;DHT22;8258;51.020;4.248;2022-10-31T10:22:54;14.80;99.90
16301;DHT22;8258;51.020;4.248;2022-10-31T10:25:24;15.00;99.90
16301;DHT22;8258;51.020;4.248;2022-10-31T10:28:06;15.10;99.90
16301;DHT22;8258;51.020;4.248;2022-10-31T10:30:40;15.20;99.90
16301;DHT22;8258;51.020;4.248;2022-10-31T10:33:11;15.20;99.90
16301;DHT22;8258;51.020;4.248;2022-10-31T10:35:42;15.20;99.90
16301;DHT22;8258;51.020;4.248;2022-10-31T10:38:15;15.40;99.90
16301;DHT22;8258;51.020;4.248;2022-10-31T10:40:45;15.60;99.90
16301;DHT22;8258;51.020;4.248;2022-10-31T10:43:23;15.80;99.90
16301;DHT22;8258;51.020;4.248;2022-10-31T10:46:03;16.10;99.90
16301;DHT22;8258;51.020;4.248;2022-10-31T10:48:54;16.30;99.90
16301;DHT22;8258;51.020;4.248;2022-10-31T10:51:28;16.50;99.90
16301;DHT22;8258;51.020;4.248;2022-10-31T10:54:07;16.70;99.90
16301;DHT22;8258;51.020;4.248;2022-10-31T10:56:51;16.70;99.90
16301;DHT22;8258;51.020;4.248;2022-10-31T10:59:22;16.60;99.90
16301;DHT22;8258;51.020;4.248;2022-10-31T11:01:51;16.30;99.90
16301;DHT22;8258;51.020;4.248;2022-10-31T11:04:29;16.30;99.90
16301;DHT22;8258;51.020;4.248;2022-10-31T11:06:57;16.30;99.90
16301;DHT22;8258;51.020;4.248;2022-10-31T11:09:25;16.30;99.90
16301;DHT22;8258;51.020;4.248;2022-10-31T11:11:52;16.20;99.90
16301;DHT22;8258;51.020;4.248;2022-10-31T11:14:20;16.20;99.90
16301;DHT22;8258;51.020;4.248;2022-10-31T11:16:50;16.20;99.90
16301;DHT22;8258;51.020;4.248;2022-10-31T11:19:20;16.10;99.90
16301;DHT22;8258;51.020;4.248;2022-10-31T11:21:48;15.90;99.90
16301;DHT22;8258;51.020;4.248;2022-10-31T11:24:17;15.80;99.90
16301;DHT22;8258;51.020;4.248;2022-10-31T11:26:46;15.50;99.90
16301;DHT22;8258;51.020;4.248;2022-10-31T11:29:15;15.40;99.90
16301;DHT22;8258;51.020;4.248;2022-10-31T11:31:44;15.50;99.90
16301;DHT22;8258;51.020;4.248;2022-10-31T11:34:29;15.50;99.90
16301;DHT22;8258;51.020;4.248;2022-10-31T11:37:02;15.60;99.90
16301;DHT22;8258;51.020;4.248;2022-10-31T11:39:30;15.80;99.90
16301;DHT22;8258;51.020;4.248;2022-10-31T11:42:00;15.80;99.90
16301;DHT22;8258;51.020;4.248;2022-10-31T11:44:30;16.00;99.90
16301;DHT22;8258;51.020;4.248;2022-10-31T11:47:00;16.30;99.90
16301;DHT22;8258;51.020;4.248;2022-10-31T11:49:34;16.60;99.90
16301;DHT22;8258;51.020;4.248;2022-10-31T11:52:04;16.60;99.90
16301;DHT22;8258;51.020;4.248;2022-10-31T11:54:36;16.60;99.90
16301;DHT22;8258;51.020;4.248;2022-10-31T11:57:05;16.70;99.90
16301;DHT22;8258;51.020;4.248;2022-10-31T11:59:32;17.20;99.90
16301;DHT22;8258;51.020;4.248;2022-10-31T12:02:01;17.70;99.90
16301;DHT22;8258;51.020;4.248;2022-10-31T12:04:35;18.10;99.90
16301;DHT22;8258;51.020;4.248;2022-10-31T12:07:03;18.00;99.90
16301;DHT22;8258;51.020;4.248;2022-10-31T12:09:33;17.70;99.90
16301;DHT22;8258;51.020;4.248;2022-10-31T12:15:34;17.40;99.90
16301;DHT22;8258;51.020;4.248;2022-10-31T12:21:28;18.10;99.90
16301;DHT22;8258;51.020;4.248;2022-10-31T12:24:10;18.20;99.90
16301;DHT22;8258;51.020;4.248;2022-10-31T12:26:45;18.10;99.90
16301;DHT22;8258;51.020;4.248;2022-10-31T12:29:31;18.20;99.90
16301;DHT22;8258;51.020;4.248;2022-10-31T12:32:15;18.30;99.90
16301;DHT22;8258;51.020;4.248;2022-10-31T12:35:21;18.10;99.90
16301;DHT22;8258;51.020;4.248;2022-10-31T12:38:07;17.80;99.90
16301;DHT22;8258;51.020;4.248;2022-10-31T12:41:00;17.90;99.90
16301;DHT22;8258;51.020;4.248;2022-10-31T12:43:36;18.10;99.90
16301;DHT22;8258;51.020;4.248;2022-10-31T12:46:04;18.20;99.90
16301;DHT22;8258;51.020;4.248;2022-10-31T12:48:57;18.40;99.90
16301;DHT22;8258;51.020;4.248;2022-10-31T12:51:35;19.00;99.90
16301;DHT22;8258;51.020;4.248;2022-10-31T12:54:27;20.20;99.90
16301;DHT22;8258;51.020;4.248;2022-10-31T12:57:03;20.60;99.90
16301;DHT22;8258;51.020;4.248;2022-10-31T12:59:36;20.40;99.90
16301;DHT22;8258;51.020;4.248;2022-10-31T13:02:12;20.30;99.90
16301;DHT22;8258;51.020;4.248;2022-10-31T13:04:48;20.70;99.90
16301;DHT22;8258;51.020;4.248;2022-10-31T13:07:20;21.00;99.90
16301;DHT22;8258;51.020;4.248;2022-10-31T13:09:54;20.30;99.90
16301;DHT22;8258;51.020;4.248;2022-10-31T13:12:23;19.90;99.90
16301;DHT22;8258;51.020;4.248;2022-10-31T13:14:53;19.60;99.90
16301;DHT22;8258;51.020;4.248;2022-10-31T13:17:26;19.50;99.90
16301;DHT22;8258;51.020;4.248;2022-10-31T13:20:11;19.70;99.90
16301;DHT22;8258;51.020;4.248;2022-10-31T13:22:42;19.60;99.90
16301;DHT22;8258;51.020;4.248;2022-10-31T13:25:15;19.90;99.90
16301;DHT22;8258;51.020;4.248;2022-10-31T13:27:47;20.70;99.90
16301;DHT22;8258;51.020;4.248;2022-10-31T13:30:17;21.90;99.90
16301;DHT22;8258;51.020;4.248;2022-10-31T13:32:48;23.00;99.90
16301;DHT22;8258;51.020;4.248;2022-10-31T13:35:21;23.90;99.90
16301;DHT22;8258;51.020;4.248;2022-10-31T13:38:01;23.40;99.90
16301;DHT22;8258;51.020;4.248;2022-10-31T13:40:40;24.20;99.90
16301;DHT22;8258;51.020;4.248;2022-10-31T13:43:22;24.60;99.90
16301;DHT22;8258;51.020;4.248;2022-10-31T13:45:52;24.60;99.90
16301;DHT22;8258;51.020;4.248;2022-10-31T13:48:34;24.50;99.90
16301;DHT22;8258;51.020;4.248;2022-10-31T13:51:03;24.70;99.90
16301;DHT22;8258;51.020;4.248;2022-10-31T13:53:43;24.90;99.90
16301;DHT22;8258;51.020;4.248;2022-10-31T13:56:18;25.10;99.90
16301;DHT22;8258;51.020;4.248;2022-10-31T13:59:02;24.80;99.90
16301;DHT22;8258;51.020;4.248;2022-10-31T14:01:30;24.80;99.90
16301;DHT22;8258;51.020;4.248;2022-10-31T14:04:01;24.20;99.90
16301;DHT22;8258;51.020;4.248;2022-10-31T14:06:42;24.50;99.90
16301;DHT22;8258;51.020;4.248;2022-10-31T14:09:23;23.90;99.90
16301;DHT22;8258;51.020;4.248;2022-10-31T14:11:52;23.50;99.90
16301;DHT22;8258;51.020;4.248;2022-10-31T14:14:20;24.00;99.90
16301;DHT22;8258;51.020;4.248;2022-10-31T14:16:55;24.30;99.90
16301;DHT22;8258;51.020;4.248;2022-10-31T14:19:23;24.00;99.90
16301;DHT22;8258;51.020;4.248;2022-10-31T14:21:50;23.50;99.90
16301;DHT22;8258;51.020;4.248;2022-10-31T14:24:35;23.80;99.90
16301;DHT22;8258;51.020;4.248;2022-10-31T14:29:46;24.50;99.90
16301;DHT22;8258;51.020;4.248;2022-10-31T14:32:21;24.60;99.90
16301;DHT22;8258;51.020;4.248;2022-10-31T14:34:53;23.60;99.90
16301;DHT22;8258;51.020;4.248;2022-10-31T14:37:31;22.50;99.90
16301;DHT22;8258;51.020;4.248;2022-10-31T14:40:23;21.50;99.90
16301;DHT22;8258;51.020;4.248;2022-10-31T14:43:15;21.00;99.90
16301;DHT22;8258;51.020;4.248;2022-10-31T14:45:52;21.60;99.90
16301;DHT22;8258;51.020;4.248;2022-10-31T14:48:47;22.30;99.90
16301;DHT22;8258;51.020;4.248;2022-10-31T14:51:19;22.60;99.90
16301;DHT22;8258;51.020;4.248;2022-10-31T14:53:48;23.10;99.90
16301;DHT22;8258;51.020;4.248;2022-10-31T14:56:20;22.90;99.90
16301;DHT22;8258;51.020;4.248;2022-10-31T14:58:51;22.50;99.90
16301;DHT22;8258;51.020;4.248;2022-10-31T15:01:23;22.10;99.90
16301;DHT22;8258;51.020;4.248;2022-10-31T15:03:50;22.10;99.90
16301;DHT22;8258;51.020;4.248;2022-10-31T15:06:20;21.90;99.90
16301;DHT22;8258;51.020;4.248;2022-10-31T15:08:49;21.50;99.90
16301;DHT22;8258;51.020;4.248;2022-10-31T15:11:19;21.20;99.90
16301;DHT22;8258;51.020;4.248;2022-10-31T15:13:48;21.00;99.90
16301;DHT22;8258;51.020;4.248;2022-10-31T15:16:19;20.90;99.90
16301;DHT22;8258;51.020;4.248;2022-10-31T15:18:51;20.90;99.90
16301;DHT22;8258;51.020;4.248;2022-10-31T15:21:20;20.90;99.90
16301;DHT22;8258;51.020;4.248;2022-10-31T15:23:47;20.50;99.90
16301;DHT22;8258;51.020;4.248;2022-10-31T15:26:18;19.90;99.90
16301;DHT22;8258;51.020;4.248;2022-10-31T15:28:46;19.50;99.90
16301;DHT22;8258;51.020;4.248;2022-10-31T15:31:15;19.10;99.90
16301;DHT22;8258;51.020;4.248;2022-10-31T15:33:48;18.90;99.90
16301;DHT22;8258;51.020;4.248;2022-10-31T15:36:20;18.80;99.90
16301;DHT22;8258;51.020;4.248;2022-10-31T15:38:48;18.70;99.90
16301;DHT22;8258;51.020;4.248;2022-10-31T15:41:23;18.60;99.90
16301;DHT22;8258;51.020;4.248;2022-10-31T15:43:51;18.60;99.90
16301;DHT22;8258;51.020;4.248;2022-10-31T15:46:18;18.40;99.90
16301;DHT22;8258;51.020;4.248;2022-10-31T15:48:47;18.20;99.90
16301;DHT22;8258;51.020;4.248;2022-10-31T15:51:15;18.10;99.90
16301;DHT22;8258;51.020;4.248;2022-10-31T15:53:44;18.00;99.90
16301;DHT22;8258;51.020;4.248;2022-10-31T15:56:19;17.90;99.90
16301;DHT22;8258;51.020;4.248;2022-10-31T15:58:48;17.70;99.90
16301;DHT22;8258;51.020;4.248;2022-10-31T16:01:21;17.60;99.90
16301;DHT22;8258;51.020;4.248;2022-10-31T16:04:05;17.50;99.90
16301;DHT22;8258;51.020;4.248;2022-10-31T16:06:33;17.40;99.90
16301;DHT22;8258;51.020;4.248;2022-10-31T16:09:01;17.20;99.90
16301;DHT22;8258;51.020;4.248;2022-10-31T16:11:33;17.20;99.90
16301;DHT22;8258;51.020;4.248;2022-10-31T16:14:04;17.10;99.90
16301;DHT22;8258;51.020;4.248;2022-10-31T16:16:32;16.90;99.90
16301;DHT22;8258;51.020;4.248;2022-10-31T16:19:02;16.90;99.90
16301;DHT22;8258;51.020;4.248;2022-10-31T16:21:32;16.80;99.90
16301;DHT22;8258;51.020;4.248;2022-10-31T16:24:02;16.70;99.90
16301;DHT22;8258;51.020;4.248;2022-10-31T16:26:30;16.70;99.90
16301;DHT22;8258;51.020;4.248;2022-10-31T16:28:58;16.60;99.90
16301;DHT22;8258;51.020;4.248;2022-10-31T16:31:28;16.50;99.90